Time;durP1;ratioP1;P1;durP2;ratioP2;P2;SDS_P1;SDS_P2;PMS_P1;PMS_P2;Temp;Humidity;BMP_temperature;BMP_pressure;BME280_temperature;BME280_humidity;BME280_pressure;Samples;Min_cycle;Max_cycle;Signal;HPM_P1;HPM_P2
2022/04/09 00:00:25;;;;;;;24.53;4.37;;;;;;;3.33;84.48;100274.00;5036990;28;20140;-80
2022/04/09 00:02:51;;;;;;;24.43;4.57;;;;;;;3.37;84.67;100279.81;5036598;28;20045;-81
2022/04/09 00:05:17;;;;;;;20.63;3.97;;;;;;;3.40;84.61;100294.69;5035886;28;20047;-84
2022/04/09 00:07:43;;;;;;;21.50;4.37;;;;;;;3.35;84.87;100300.59;5037336;28;20052;-81
2022/04/09 00:10:10;;;;;;;20.77;4.50;;;;;;;3.29;85.22;100295.94;5038380;28;20040;-81
2022/04/09 00:12:36;;;;;;;20.67;4.20;;;;;;;3.34;85.11;100309.63;5038061;28;20963;-81
2022/04/09 00:15:02;;;;;;;22.53;4.33;;;;;;;3.33;85.29;100316.84;5037752;28;20041;-81
2022/04/09 00:17:28;;;;;;;19.27;4.20;;;;;;;3.35;85.19;100316.66;5037898;28;20040;-82
2022/04/09 00:19:53;;;;;;;19.47;3.90;;;;;;;3.37;84.83;100319.97;5052881;28;20037;-83
2022/04/09 00:22:19;;;;;;;23.47;3.83;;;;;;;3.31;84.79;100316.16;5036420;28;20211;-84
2022/04/09 00:24:45;;;;;;;17.03;3.47;;;;;;;3.35;84.54;100332.72;5037389;28;20084;-82
2022/04/09 00:27:10;;;;;;;20.97;3.60;;;;;;;3.33;84.56;100337.41;5036127;28;20029;-80
2022/04/09 00:29:36;;;;;;;24.17;3.70;;;;;;;3.37;84.35;100344.06;5019664;28;20052;-80
2022/04/09 00:32:02;;;;;;;17.47;3.50;;;;;;;3.33;84.18;100343.63;5037290;28;20488;-79
2022/04/09 00:34:29;;;;;;;16.60;3.50;;;;;;;3.29;84.59;100338.78;5037537;28;20637;-81
2022/04/09 00:36:54;;;;;;;19.10;4.13;;;;;;;3.35;84.67;100346.13;5037431;28;20179;-82
2022/04/09 00:39:19;;;;;;;19.63;3.70;;;;;;;3.32;84.31;100346.47;5037308;28;20124;-82
2022/04/09 00:41:47;;;;;;;16.00;3.40;;;;;;;3.35;84.10;100352.28;5038162;28;20492;-82
2022/04/09 00:44:21;;;;;;;17.20;3.30;;;;;;;3.36;84.35;100361.19;5037160;28;20119;-81
2022/04/09 00:46:47;;;;;;;19.17;3.55;;;;;;;3.35;83.66;100351.47;5029652;28;20056;-78
2022/04/09 00:49:13;;;;;;;17.70;3.23;;;;;;;3.43;83.74;100370.16;5035642;28;20087;-80
2022/04/09 00:51:43;;;;;;;17.50;3.30;;;;;;;3.44;83.55;100382.56;5037711;28;20044;-81
2022/04/09 00:54:14;;;;;;;15.13;3.20;;;;;;;3.46;83.04;100375.16;5037145;28;20522;-81
2022/04/09 00:56:41;;;;;;;18.23;3.60;;;;;;;3.42;83.05;100368.50;5037421;28;20070;-83
2022/04/09 00:59:10;;;;;;;21.47;3.60;;;;;;;3.41;83.27;100382.88;5051845;28;20044;-79
2022/04/09 01:01:39;;;;;;;16.77;3.03;;;;;;;3.45;82.31;100394.91;5035726;28;20393;-82
2022/04/09 01:04:07;;;;;;;18.43;3.70;;;;;;;3.38;82.84;100384.06;5051293;28;20033;-82
2022/04/09 01:06:34;;;;;;;15.57;3.20;;;;;;;3.40;82.24;100391.09;5036967;28;20090;-81
2022/04/09 01:08:59;;;;;;;15.90;3.30;;;;;;;3.36;82.45;100396.00;5051745;28;20037;-81
2022/04/09 01:11:25;;;;;;;14.93;3.10;;;;;;;3.38;82.33;100402.81;5036688;28;21609;-80
2022/04/09 01:13:51;;;;;;;15.63;2.93;;;;;;;3.35;82.10;100397.81;5036817;28;20067;-80
2022/04/09 01:16:16;;;;;;;19.77;3.40;;;;;;;3.31;82.33;100409.06;5035060;28;20045;-80
2022/04/09 01:18:42;;;;;;;17.83;3.37;;;;;;;3.25;82.41;100396.34;5036555;28;20045;-81
2022/04/09 01:21:07;;;;;;;22.43;3.80;;;;;;;3.26;82.29;100409.56;5037003;28;20057;-80
2022/04/09 01:23:33;;;;;;;17.87;3.03;;;;;;;3.31;82.79;100420.59;5036243;28;20413;-80
2022/04/09 01:26:01;;;;;;;16.70;3.30;;;;;;;3.26;82.64;100417.59;5036649;28;20124;-83
2022/04/09 01:28:27;;;;;;;20.37;3.40;;;;;;;3.30;82.96;100428.81;5036379;28;20373;-80
2022/04/09 01:30:53;;;;;;;20.07;3.60;;;;;;;3.25;82.96;100432.03;5036493;28;20045;-85
2022/04/09 01:33:19;;;;;;;16.93;3.00;;;;;;;3.23;83.22;100435.88;5036051;28;20045;-82
2022/04/09 01:35:46;;;;;;;18.57;3.40;;;;;;;3.23;83.84;100450.09;5036509;28;20160;-80
2022/04/09 01:38:12;;;;;;;20.50;3.80;;;;;;;3.27;83.44;100446.06;5036407;28;20094;-81
2022/04/09 01:40:38;;;;;;;21.17;3.90;;;;;;;3.29;83.69;100453.91;5051841;28;20037;-82
2022/04/09 01:43:03;;;;;;;21.23;4.00;;;;;;;3.23;83.28;100438.56;5036394;28;20458;-81
2022/04/09 01:45:29;;;;;;;19.87;3.77;;;;;;;3.24;83.60;100448.22;5034622;28;20071;-83
2022/04/09 01:47:55;;;;;;;22.77;4.27;;;;;;;3.31;83.35;100465.28;5036234;28;20021;-82
2022/04/09 01:50:26;;;;;;;27.73;4.57;;;;;;;3.30;83.53;100466.28;5036493;28;20396;-80
2022/04/09 01:52:51;;;;;;;23.90;4.37;;;;;;;3.27;83.57;100472.84;5034812;28;20029;-81
2022/04/09 01:55:17;;;;;;;22.60;4.47;;;;;;;3.31;83.09;100484.88;5035858;28;20037;-82
2022/04/09 01:57:42;;;;;;;18.50;3.60;;;;;;;3.31;83.25;100481.38;5036192;28;20173;-82
2022/04/09 02:00:11;;;;;;;16.17;3.20;;;;;;;3.31;82.63;100489.41;5036193;28;20044;-82
2022/04/09 02:02:36;;;;;;;12.10;3.03;;;;;;;3.26;82.74;100489.91;5036111;28;21051;-82
2022/04/09 02:05:02;;;;;;;20.67;3.40;;;;;;;3.22;83.12;100496.59;5036264;28;20091;-82
2022/04/09 02:07:28;;;;;;;18.00;3.60;;;;;;;3.23;82.70;100494.78;5036090;28;20537;-81
2022/04/09 02:09:54;;;;;;;18.27;3.30;;;;;;;3.18;83.29;100500.63;5035700;28;20064;-82
2022/04/09 02:12:20;;;;;;;15.90;3.10;;;;;;;3.15;83.18;100496.47;5035530;28;20499;-82
2022/04/09 02:14:45;;;;;;;19.73;3.73;;;;;;;3.14;83.17;100508.19;5035975;28;20658;-80
2022/04/09 02:17:11;;;;;;;19.80;3.53;;;;;;;3.16;83.22;100510.69;5036094;28;20079;-83
2022/04/09 02:19:38;;;;;;;19.57;3.47;;;;;;;3.21;82.87;100517.19;5035863;28;20539;-82
2022/04/09 02:22:04;;;;;;;19.23;3.20;;;;;;;3.19;83.12;100518.38;5018237;28;20495;-81
2022/04/09 02:24:29;;;;;;;20.97;3.57;;;;;;;3.17;82.78;100509.69;5034383;28;20025;-79
2022/04/09 02:26:55;;;;;;;16.73;3.37;;;;;;;3.24;82.66;100529.41;5035885;28;20616;-82
2022/04/09 02:29:20;;;;;;;14.17;2.97;;;;;;;3.16;82.99;100524.91;5038611;28;20036;-80
2022/04/09 02:31:45;;;;;;;18.10;3.90;;;;;;;3.24;82.83;100537.44;5039057;28;20138;-80
2022/04/09 02:34:11;;;;;;;16.50;3.20;;;;;;;3.20;82.41;100526.22;5039418;28;20036;-80
2022/04/09 02:36:36;;;;;;;16.83;3.37;;;;;;;3.29;82.41;100540.44;5038659;28;20045;-80
2022/04/09 02:39:02;;;;;;;17.33;3.40;;;;;;;3.37;81.49;100547.59;5038171;28;20037;-80
2022/04/09 02:41:29;;;;;;;12.67;3.10;;;;;;;3.35;81.49;100538.94;5039610;28;20029;-81
2022/04/09 02:43:54;;;;;;;18.27;3.37;;;;;;;3.46;80.89;100557.28;5039622;28;20484;-82
2022/04/09 02:46:21;;;;;;;17.80;3.43;;;;;;;3.40;80.78;100536.56;5039754;28;20048;-82
2022/04/09 02:48:46;;;;;;;16.80;3.40;;;;;;;3.44;81.31;100558.47;5039663;28;20040;-82
2022/04/09 02:51:12;;;;;;;17.67;3.43;;;;;;;3.40;81.31;100567.84;5039005;28;20273;-81
2022/04/09 02:53:37;;;;;;;15.10;2.93;;;;;;;3.39;80.94;100569.72;5039250;28;20051;-80
2022/04/09 02:56:04;;;;;;;13.77;3.27;;;;;;;3.35;80.99;100571.06;5037999;28;20497;-81
2022/04/09 02:58:29;;;;;;;13.73;3.17;;;;;;;3.41;80.54;100580.25;5039145;28;20044;-81
2022/04/09 03:00:54;;;;;;;15.73;3.07;;;;;;;3.40;80.34;100576.75;5039570;28;20041;-79
2022/04/09 03:03:20;;;;;;;14.37;2.90;;;;;;;3.45;79.84;100573.53;5038947;28;20125;-81
2022/04/09 03:05:45;;;;;;;13.97;3.27;;;;;;;3.43;80.36;100581.75;5037812;28;20033;-81
2022/04/09 03:08:10;;;;;;;16.30;2.70;;;;;;;3.44;79.75;100583.44;5037567;28;20047;-79
2022/04/09 03:10:36;;;;;;;13.40;2.83;;;;;;;3.35;80.32;100582.59;5038651;28;20041;-80
2022/04/09 03:13:04;;;;;;;14.30;2.80;;;;;;;3.43;79.69;100595.16;5039013;28;20041;-78
2022/04/09 03:15:29;;;;;;;13.30;2.70;;;;;;;3.41;80.07;100591.78;5038930;28;20033;-82
2022/04/09 03:17:54;;;;;;;13.30;2.77;;;;;;;3.35;80.13;100603.19;5039112;28;20039;-81
2022/04/09 03:20:20;;;;;;;14.20;2.97;;;;;;;3.35;80.31;100605.88;5037625;28;20036;-80
2022/04/09 03:22:47;;;;;;;15.37;2.57;;;;;;;3.30;80.22;100611.72;5039137;28;20132;-81
2022/04/09 03:25:12;;;;;;;14.17;2.53;;;;;;;3.30;80.00;100605.53;5038708;28;20033;-81
2022/04/09 03:27:38;;;;;;;8.70;2.50;;;;;;;3.30;80.30;100619.75;5039081;28;20044;-79
2022/04/09 03:30:05;;;;;;;9.50;2.50;;;;;;;3.28;80.10;100619.09;5013937;28;20041;-80
2022/04/09 03:32:30;;;;;;;16.43;2.90;;;;;;;3.28;80.25;100624.47;5038277;28;20130;-80
2022/04/09 03:34:57;;;;;;;13.17;2.60;;;;;;;3.32;79.66;100619.63;5038254;28;20037;-80
2022/04/09 03:37:22;;;;;;;10.90;2.90;;;;;;;3.30;79.75;100624.28;5037375;28;20047;-81
2022/04/09 03:39:49;;;;;;;14.13;3.00;;;;;;;3.32;79.46;100624.97;5038512;28;20045;-82
2022/04/09 03:42:15;;;;;;;17.57;2.83;;;;;;;3.25;80.14;100623.94;5038326;28;20037;-81
2022/04/09 03:44:40;;;;;;;17.03;3.17;;;;;;;3.24;79.68;100628.47;5053019;28;20090;-82
2022/04/09 03:47:06;;;;;;;13.10;2.83;;;;;;;3.21;79.69;100623.47;5036627;28;20037;-83
2022/04/09 03:49:32;;;;;;;11.43;2.60;;;;;;;3.22;80.04;100635.84;5038337;28;20074;-81
2022/04/09 03:51:58;;;;;;;11.43;2.50;;;;;;;3.15;80.27;100638.34;5038044;28;20036;-80
2022/04/09 03:54:24;;;;;;;13.70;2.50;;;;;;;3.12;80.55;100645.91;5038440;28;20079;-79
2022/04/09 03:56:49;;;;;;;13.33;2.57;;;;;;;3.04;80.49;100634.16;5038623;28;20033;-79
2022/04/09 03:59:15;;;;;;;12.63;2.30;;;;;;;2.94;81.18;100644.22;5038398;28;20128;-84
2022/04/09 04:01:43;;;;;;;13.97;2.80;;;;;;;2.90;81.58;100650.06;5038321;28;20045;-81
2022/04/09 04:04:10;;;;;;;11.00;2.40;;;;;;;2.84;81.75;100654.25;5037521;28;20488;-81
2022/04/09 04:06:36;;;;;;;11.27;2.70;;;;;;;2.78;82.31;100660.28;5038733;28;20060;-80
2022/04/09 04:09:01;;;;;;;13.57;2.80;;;;;;;2.74;82.27;100654.41;5037544;28;20253;-79
2022/04/09 04:11:27;;;;;;;14.77;2.60;;;;;;;2.68;82.88;100663.09;5038003;28;20135;-79
2022/04/09 04:13:53;;;;;;;15.00;2.80;;;;;;;2.58;83.17;100649.84;5038080;28;21474;-81
2022/04/09 04:16:19;;;;;;;12.03;3.10;;;;;;;2.57;83.27;100668.75;5037764;28;20045;-80
2022/04/09 04:18:44;;;;;;;19.20;3.60;;;;;;;2.56;83.54;100678.63;5037948;28;20400;-79
2022/04/09 04:21:10;;;;;;;15.53;2.97;;;;;;;2.43;83.57;100676.38;5037855;28;20484;-80
2022/04/09 04:23:35;;;;;;;17.20;3.17;;;;;;;2.34;83.88;100680.06;5036567;28;20064;-81
2022/04/09 04:26:02;;;;;;;15.87;3.37;;;;;;;2.38;84.42;100684.09;5037219;28;20473;-81
2022/04/09 04:28:28;;;;;;;16.80;3.13;;;;;;;2.30;85.46;100689.38;5052645;28;20170;-80
2022/04/09 04:30:53;;;;;;;18.30;3.13;;;;;;;2.21;85.52;100687.69;5037136;28;20025;-80
2022/04/09 04:33:19;;;;;;;13.73;2.93;;;;;;;2.23;85.29;100694.56;5037225;28;20478;-79
2022/04/09 04:35:44;;;;;;;18.77;3.17;;;;;;;2.20;85.89;100697.53;5036245;28;20041;-81
2022/04/09 04:38:11;;;;;;;14.57;3.10;;;;;;;2.11;86.11;100691.31;5037980;28;20094;-81
2022/04/09 04:40:36;;;;;;;14.53;3.10;;;;;;;2.13;85.86;100700.00;5037154;28;20128;-81
2022/04/09 04:43:02;;;;;;;15.23;3.03;;;;;;;2.14;85.32;100700.88;5037723;28;20049;-81
2022/04/09 04:45:28;;;;;;;14.73;3.30;;;;;;;2.12;85.68;100710.88;5037074;28;20039;-82
2022/04/09 04:47:53;;;;;;;14.30;3.00;;;;;;;2.16;85.77;100712.22;5037302;28;20061;-81
2022/04/09 04:50:19;;;;;;;16.80;3.10;;;;;;;2.10;85.69;100703.00;5036166;28;20482;-80
2022/04/09 04:52:45;;;;;;;12.97;3.03;;;;;;;2.15;85.81;100719.41;5036882;28;20052;-82
2022/04/09 04:55:11;;;;;;;13.80;2.80;;;;;;;2.15;85.98;100708.72;5036861;28;20487;-81
2022/04/09 04:57:46;;;;;;;11.53;2.93;;;;;;;2.18;85.64;100719.09;5034309;28;20037;-79
2022/04/09 05:00:17;;;;;;;17.10;3.50;;;;;;;2.16;85.93;100723.75;5037427;28;20064;-79
2022/04/09 05:02:43;;;;;;;14.27;3.57;;;;;;;2.21;85.29;100733.16;5036937;28;20514;-79
2022/04/09 05:05:08;;;;;;;18.33;3.37;;;;;;;2.15;85.36;100724.75;5036280;28;20048;-79
2022/04/09 05:07:40;;;;;;;14.03;2.60;;;;;;;2.17;85.84;100738.78;5037341;28;20033;-79
2022/04/09 05:10:07;;;;;;;13.87;3.10;;;;;;;2.19;85.40;100742.16;5036394;28;20048;-81
2022/04/09 05:12:33;;;;;;;18.03;3.37;;;;;;;2.17;85.64;100738.78;5037206;28;20041;-80
2022/04/09 05:14:59;;;;;;;18.53;3.47;;;;;;;2.23;85.04;100748.03;5034724;28;20484;-78
2022/04/09 05:17:24;;;;;;;17.67;3.50;;;;;;;2.27;85.22;100756.53;5036866;28;20179;-79
2022/04/09 05:19:50;;;;;;;13.93;3.33;;;;;;;2.30;84.88;100761.56;5036871;28;20064;-80
2022/04/09 05:22:15;;;;;;;12.43;3.00;;;;;;;2.32;85.12;100762.25;5036351;28;20087;-80
2022/04/09 05:24:40;;;;;;;13.37;3.27;;;;;;;2.37;84.91;100770.66;5036742;28;20145;-79
2022/04/09 05:27:06;;;;;;;12.93;3.00;;;;;;;2.35;84.99;100768.13;5035327;28;21013;-81
2022/04/09 05:29:31;;;;;;;16.17;3.43;;;;;;;2.45;84.61;100781.38;5035103;28;20053;-79
2022/04/09 05:31:57;;;;;;;18.23;3.47;;;;;;;2.51;84.68;100787.91;5034140;28;20680;-81
2022/04/09 05:34:22;;;;;;;13.77;3.43;;;;;;;2.53;84.51;100781.41;5036103;28;20061;-79
2022/04/09 05:36:47;;;;;;;17.40;3.37;;;;;;;2.55;84.39;100793.78;5036120;28;20028;-81
2022/04/09 05:39:15;;;;;;;19.23;4.50;;;;;;;2.57;84.58;100792.63;5036383;28;20041;-81
2022/04/09 05:41:41;;;;;;;15.77;3.60;;;;;;;2.49;84.75;100804.13;5036254;28;20489;-79
2022/04/09 05:44:06;;;;;;;12.90;3.30;;;;;;;2.47;84.68;100806.13;5035620;28;20036;-81
2022/04/09 05:46:32;;;;;;;16.53;3.23;;;;;;;2.42;84.85;100811.13;5034446;28;20041;-82
2022/04/09 05:48:57;;;;;;;15.80;3.70;;;;;;;2.35;84.74;100804.72;5042561;28;20029;-79
2022/04/09 05:51:24;;;;;;;15.13;3.97;;;;;;;2.39;84.73;100818.63;5048163;28;20496;-79
2022/04/09 05:53:49;;;;;;;17.30;4.80;;;;;;;2.35;85.07;100823.44;5047260;28;20021;-79
2022/04/09 05:56:15;;;;;;;18.20;3.87;;;;;;;2.34;85.69;100821.78;5050742;28;20104;-79
2022/04/09 05:58:42;;;;;;;20.40;3.70;;;;;;;2.38;85.20;100835.66;5052856;28;20036;-79
2022/04/09 06:01:07;;;;;;;16.23;3.37;;;;;;;2.32;84.92;100826.44;5054098;28;20353;-78
2022/04/09 06:03:33;;;;;;;16.47;3.57;;;;;;;2.34;84.67;100829.81;5053181;28;20040;-78
2022/04/09 06:05:59;;;;;;;12.47;3.00;;;;;;;2.37;84.48;100845.53;5053784;28;20453;-79
2022/04/09 06:08:24;;;;;;;13.73;3.10;;;;;;;2.38;84.74;100847.19;5051488;28;20033;-79
2022/04/09 06:10:50;;;;;;;17.57;3.83;;;;;;;2.40;84.95;100839.03;5052095;28;20032;-79
2022/04/09 06:13:16;;;;;;;13.80;3.30;;;;;;;2.47;84.94;100848.06;5052161;28;20112;-79
2022/04/09 06:15:41;;;;;;;19.60;3.37;;;;;;;2.60;84.56;100858.34;5051200;28;20104;-79
2022/04/09 06:18:08;;;;;;;15.50;3.43;;;;;;;2.67;84.56;100857.53;5049097;28;20033;-79
2022/04/09 06:20:33;;;;;;;16.93;3.50;;;;;;;2.82;84.50;100873.84;5043866;28;20032;-83
2022/04/09 06:22:59;;;;;;;17.13;3.50;;;;;;;3.02;84.83;100881.63;5050082;28;20056;-79
2022/04/09 06:25:25;;;;;;;12.67;3.33;;;;;;;3.19;84.92;100886.00;5050513;28;20465;-79
2022/04/09 06:27:50;;;;;;;19.97;3.80;;;;;;;3.34;85.22;100885.41;5049979;28;20039;-81
2022/04/09 06:30:16;;;;;;;14.27;3.27;;;;;;;3.65;84.40;100920.47;5049302;28;20565;-80
2022/04/09 06:32:48;;;;;;;14.73;3.20;;;;;;;3.62;84.23;100920.81;5050356;28;20032;-82
2022/04/09 06:35:25;;;;;;;17.33;3.77;;;;;;;3.45;83.89;100885.09;5068509;28;20075;-83
2022/04/09 06:37:59;;;;;;;18.97;3.33;;;;;;;3.46;83.76;100891.31;5068516;28;20025;-83
2022/04/09 06:43:51;;;;;;;16.90;3.83;;;;;;;3.25;87.16;100915.81;5046456;28;20388;-84
2022/04/09 06:53:38;;;;;;;23.57;4.80;;;;;;;3.31;89.72;100960.72;5049875;28;20234;-83
2022/04/09 06:56:07;;;;;;;14.47;4.23;;;;;;;3.14;90.46;100922.31;5052448;28;20021;-82
2022/04/09 06:58:49;;;;;;;15.67;3.43;;;;;;;3.02;90.67;100924.47;5045446;28;20464;-83
2022/04/09 07:01:40;;;;;;;13.37;3.27;;;;;;;3.31;91.22;100982.16;5027239;28;20069;-83
2022/04/09 07:04:11;;;;;;;15.83;4.17;;;;;;;3.00;91.49;100959.38;5011022;28;20125;-83
2022/04/09 07:06:43;;;;;;;8.27;2.47;;;;;;;3.00;88.05;100978.13;5020841;28;20038;-83
2022/04/09 07:09:09;;;;;;;7.07;2.40;;;;;;;2.73;88.35;100930.16;5005067;28;20389;-88
2022/04/09 07:11:35;;;;;;;6.90;2.13;;;;;;;2.75;87.07;100937.03;5020536;28;20036;-84
2022/04/09 07:14:20;;;;;;;12.33;2.63;;;;;;;2.81;87.60;100936.38;5023501;28;20431;-82
2022/04/09 07:20:12;;;;;;;9.93;2.77;;;;;;;2.83;88.34;100939.75;5029988;28;20045;-83
2022/04/09 07:22:40;;;;;;;11.80;3.10;;;;;;;2.83;88.64;100942.41;5031713;28;20042;-84
2022/04/09 07:25:14;;;;;;;13.70;3.60;;;;;;;2.97;89.53;100954.38;5020253;28;20428;-82
2022/04/09 07:27:42;;;;;;;12.63;3.70;;;;;;;3.00;89.03;100939.81;5050934;28;20033;-82
2022/04/09 07:30:33;;;;;;;12.40;3.20;;;;;;;3.39;89.18;100979.50;5030010;28;20128;-82
2022/04/09 07:33:02;;;;;;;10.67;3.30;;;;;;;3.53;88.89;100988.75;5046865;28;20059;-82
2022/04/09 07:36:07;;;;;;;14.80;3.60;;;;;;;3.53;88.96;100972.69;5048018;28;20539;-81
2022/04/09 07:39:08;;;;;;;;;;;;;;;;;;;;;
2022/04/09 07:45:15;;;;;;;;;;;;;;;;;;;;;
2022/04/09 07:51:08;;;;;;;15.93;4.27;;;;;;;4.48;89.28;100961.56;5050156;28;20110;-85
2022/04/09 07:53:40;;;;;;;13.90;3.50;;;;;;;4.56;86.09;100976.84;5043376;28;20464;-82
2022/04/09 07:56:11;;;;;;;13.33;3.40;;;;;;;4.70;84.44;100994.09;5039118;28;20041;-84
2022/04/09 07:58:43;;;;;;;13.03;3.60;;;;;;;4.65;83.35;100983.88;5038318;28;20036;-83
2022/04/09 08:01:10;;;;;;;12.13;3.43;;;;;;;4.77;83.01;100987.03;5040816;28;20074;-82
2022/04/09 08:03:36;;;;;;;12.03;3.37;;;;;;;4.80;83.31;100977.81;5039323;28;20029;-83
2022/04/09 08:06:01;;;;;;;12.17;3.40;;;;;;;4.90;84.16;100981.97;5036526;28;20106;-84
2022/04/09 08:08:27;;;;;;;10.87;3.33;;;;;;;5.17;84.09;101000.56;5038237;28;20049;-84
2022/04/09 08:10:52;;;;;;;11.10;3.77;;;;;;;5.18;82.47;101000.38;5047901;28;20115;-81
2022/04/09 08:13:18;;;;;;;17.33;4.00;;;;;;;5.35;82.76;101005.69;5024756;28;20033;-82
2022/04/09 08:15:44;;;;;;;15.70;3.80;;;;;;;5.47;82.34;101015.06;5054517;28;20115;-82
2022/04/09 08:18:10;;;;;;;12.63;3.10;;;;;;;5.55;82.52;100996.22;5051700;28;20120;-84
2022/04/09 08:20:37;;;;;;;16.33;4.20;;;;;;;5.77;82.63;101015.25;5046526;28;20048;-86
2022/04/09 08:23:03;;;;;;;12.67;3.40;;;;;;;5.80;84.36;100996.06;5038155;28;20033;-83
2022/04/09 08:25:29;;;;;;;12.07;3.30;;;;;;;5.83;83.00;100984.97;5037197;28;20506;-86
2022/04/09 08:27:55;;;;;;;8.50;3.07;;;;;;;5.87;82.26;101002.41;5037187;28;20032;-85
2022/04/09 08:30:21;;;;;;;8.17;2.90;;;;;;;6.17;82.57;101009.84;5039425;28;20660;-82
2022/04/09 08:32:49;;;;;;;12.97;3.27;;;;;;;6.14;83.23;101008.34;5052624;28;20144;-86
2022/04/09 08:35:15;;;;;;;10.03;2.97;;;;;;;6.01;79.52;101016.16;5037851;28;20036;-86
2022/04/09 08:37:41;;;;;;;8.77;2.37;;;;;;;5.83;78.76;101041.44;5037370;28;20033;-88
2022/04/09 08:40:12;;;;;;;8.07;1.87;;;;;;;5.39;77.12;101047.34;5038310;28;20036;-86
2022/04/09 08:42:37;;;;;;;5.67;1.50;;;;;;;5.08;76.57;101056.97;5038111;28;20037;-86
2022/04/09 08:45:03;;;;;;;4.93;1.43;;;;;;;4.82;77.56;101030.31;5037166;28;20099;-87
2022/04/09 08:47:29;;;;;;;4.13;1.47;;;;;;;4.76;78.69;101057.84;5037611;28;20036;-86
2022/04/09 08:49:55;;;;;;;7.30;1.63;;;;;;;4.45;79.68;101020.09;5036471;28;20036;-87
2022/04/09 08:52:21;;;;;;;6.30;1.90;;;;;;;4.63;79.92;101063.72;5037587;28;21840;-84
2022/04/09 08:54:47;;;;;;;6.87;2.00;;;;;;;4.45;81.27;101038.88;5035554;28;20110;-83
2022/04/09 08:57:14;;;;;;;8.50;2.27;;;;;;;4.93;84.65;101068.59;5039609;28;20457;-89
2022/04/09 08:59:40;;;;;;;11.60;2.73;;;;;;;5.31;79.28;101063.47;5041285;28;20040;-88
2022/04/09 09:02:06;;;;;;;8.80;2.57;;;;;;;5.53;78.61;101068.09;5042323;28;20045;-82
2022/04/09 09:04:31;;;;;;;2.70;1.67;;;;;;;5.54;73.58;101053.66;5048009;28;20029;-85
2022/04/09 09:07:16;;;;;;;5.77;1.67;;;;;;;5.79;73.52;101069.69;5036897;28;20401;-84
2022/04/09 09:09:41;;;;;;;2.95;1.63;;;;;;;5.87;72.28;101056.19;5037130;28;20033;-86
2022/04/09 09:12:07;;;;;;;2.57;1.70;;;;;;;6.20;72.62;101060.59;5035000;28;20354;-89
2022/04/09 09:14:51;;;;;;;5.70;1.80;;;;;;;6.57;71.81;101073.31;5037680;28;20028;-86
2022/04/09 09:17:26;;;;;;;5.17;1.70;;;;;;;7.00;69.04;101080.03;5036779;28;20113;-86
2022/04/09 09:19:52;;;;;;;5.90;1.87;;;;;;;7.03;68.72;101085.03;5037670;28;20029;-84
2022/04/09 09:22:19;;;;;;;4.73;1.37;;;;;;;6.87;67.42;101065.31;5051683;28;20059;-85
2022/04/09 09:25:01;;;;;;;2.93;1.30;;;;;;;6.67;64.71;101094.59;5039415;28;20064;-86
2022/04/09 09:27:27;;;;;;;3.50;1.10;;;;;;;6.53;63.43;101107.00;5036699;28;20043;-81
2022/04/09 09:29:53;;;;;;;3.20;1.50;;;;;;;6.33;65.31;101100.41;5037019;28;20037;-84
2022/04/09 09:32:28;;;;;;;4.63;1.20;;;;;;;6.13;64.31;101108.06;5035577;28;20056;-87
2022/04/09 09:34:59;;;;;;;4.50;1.00;;;;;;;5.94;66.17;101114.69;5036859;28;20037;-85
2022/04/09 09:37:26;;;;;;;3.17;0.97;;;;;;;5.84;64.60;101115.72;5035981;28;20499;-86
2022/04/09 09:39:52;;;;;;;1.90;1.20;;;;;;;5.61;65.21;101104.06;5036326;28;20037;-87
2022/04/09 09:42:19;;;;;;;3.50;1.13;;;;;;;5.61;64.90;101082.53;5018480;28;20044;-82
2022/04/09 09:44:45;;;;;;;2.50;1.10;;;;;;;6.27;64.47;101122.63;5036721;28;20125;-85
2022/04/09 09:47:15;;;;;;;3.63;1.07;;;;;;;6.62;64.10;101102.38;5036451;28;20037;-87
2022/04/09 09:49:56;;;;;;;2.30;1.20;;;;;;;7.14;63.00;101116.94;5037357;28;20070;-85
2022/04/09 09:52:29;;;;;;;3.53;1.27;;;;;;;7.39;60.81;101098.66;5036595;28;20043;-85
2022/04/09 09:55:19;;;;;;;2.97;1.37;;;;;;;7.82;61.88;101110.66;5036528;28;20094;-85
2022/04/09 09:57:48;;;;;;;4.20;1.60;;;;;;;7.74;61.65;101085.47;5036343;28;20072;-84
2022/04/09 10:00:14;;;;;;;5.10;1.90;;;;;;;7.88;64.00;101085.66;5037274;28;20035;-84
2022/04/09 10:02:40;;;;;;;5.70;1.90;;;;;;;8.39;63.84;101103.66;5036688;28;20044;-84
2022/04/09 10:05:07;;;;;;;9.60;2.20;;;;;;;8.59;65.98;101088.56;5036467;28;20847;-89
2022/04/09 10:07:34;;;;;;;8.23;2.30;;;;;;;8.65;64.18;101113.09;5032254;28;20095;-87
2022/04/09 10:10:05;;;;;;;6.07;2.00;;;;;;;8.72;62.76;101106.75;5033118;28;20029;-88
2022/04/09 10:12:38;;;;;;;9.77;2.30;;;;;;;9.09;62.51;101083.16;5048572;28;20044;-82
2022/04/09 10:15:04;;;;;;;9.00;2.37;;;;;;;9.14;60.95;101085.28;5033803;28;20067;-81
2022/04/09 10:17:34;;;;;;;11.83;2.33;;;;;;;9.36;59.60;101121.22;5031516;28;20067;-81
2022/04/09 10:20:03;;;;;;;6.63;2.40;;;;;;;9.49;57.14;101101.53;5033864;28;20362;-86
2022/04/09 10:22:35;;;;;;;8.03;2.33;;;;;;;9.81;59.16;101083.00;5033924;28;20056;-85
2022/04/09 10:25:01;;;;;;;6.57;2.40;;;;;;;10.39;59.73;101098.00;5032044;28;20037;-86
2022/04/09 10:27:52;;;;;;;5.90;2.20;;;;;;;10.30;54.34;101111.69;5033228;28;20566;-83
2022/04/09 10:30:22;;;;;;;12.67;2.57;;;;;;;9.62;57.60;101092.66;5033783;28;20064;-87
2022/04/09 10:32:53;;;;;;;9.00;2.60;;;;;;;9.79;56.48;101120.22;5030416;28;20052;-82
2022/04/09 10:35:38;;;;;;;5.03;1.87;;;;;;;9.25;56.46;101125.28;5032799;28;20037;-83
2022/04/09 10:38:07;;;;;;;7.13;2.17;;;;;;;9.00;54.61;101121.34;5032200;28;20064;-84
2022/04/09 10:40:56;;;;;;;5.70;2.00;;;;;;;8.82;55.82;101087.50;5035957;28;20164;-81
2022/04/09 10:43:25;;;;;;;6.57;2.00;;;;;;;9.12;52.69;101114.38;5035213;28;21516;-82
2022/04/09 10:46:02;;;;;;;4.47;1.70;;;;;;;8.91;50.91;101113.38;5033108;28;21658;-85
2022/04/09 10:48:31;;;;;;;5.33;1.70;;;;;;;8.92;51.26;101117.75;5033090;28;20083;-81
2022/04/09 10:51:04;;;;;;;5.10;2.03;;;;;;;8.98;59.07;101097.22;5035184;28;20485;-88
2022/04/09 10:53:31;;;;;;;6.90;1.60;;;;;;;9.39;53.11;101106.47;5036222;28;20035;-83
2022/04/09 10:56:25;;;;;;;6.70;1.80;;;;;;;9.93;50.18;101115.75;5036205;28;20102;-86
2022/04/09 10:59:06;;;;;;;4.70;1.77;;;;;;;9.80;46.77;101124.59;5035221;28;20037;-86
2022/04/09 11:01:46;;;;;;;4.40;1.70;;;;;;;9.59;47.98;101123.66;5033651;28;20119;-86
2022/04/09 11:04:36;;;;;;;4.23;1.30;;;;;;;10.10;48.58;101125.19;5033145;28;20037;-85
2022/04/09 11:07:09;;;;;;;4.20;1.73;;;;;;;10.35;45.86;101127.41;5033818;28;20068;-82
2022/04/09 11:09:56;;;;;;;2.73;1.30;;;;;;;10.63;45.70;101129.13;5035111;28;20040;-82
2022/04/09 11:12:38;;;;;;;5.60;1.50;;;;;;;10.00;44.89;101107.66;5035060;28;20040;-85
2022/04/09 11:15:16;;;;;;;6.53;1.50;;;;;;;10.17;44.18;101116.25;5032618;28;20123;-88
2022/04/09 11:17:43;;;;;;;5.97;1.53;;;;;;;10.13;44.60;101110.38;5033686;28;20481;-82
2022/04/09 11:20:23;;;;;;;5.27;1.50;;;;;;;10.33;45.36;101098.81;5032268;28;20039;-85
2022/04/09 11:22:54;;;;;;;6.03;1.77;;;;;;;10.51;46.28;101092.84;5033848;28;20552;-89
2022/04/09 11:25:24;;;;;;;5.40;1.33;;;;;;;10.93;43.52;101120.63;5035174;28;20178;-84
2022/04/09 11:28:04;;;;;;;5.33;1.27;;;;;;;10.68;41.94;101101.41;5033033;28;20036;-86
2022/04/09 11:30:30;;;;;;;4.47;1.90;;;;;;;10.50;41.94;101107.41;5033647;28;20041;-84
2022/04/09 11:32:58;;;;;;;5.00;1.40;;;;;;;10.65;43.19;101116.22;5044129;28;20037;-81
2022/04/09 11:35:24;;;;;;;2.77;1.40;;;;;;;10.30;45.19;101133.38;5052673;28;20029;-82
2022/04/09 11:37:51;;;;;;;2.50;1.20;;;;;;;9.98;44.41;101113.25;5040703;28;20067;-86
2022/04/09 11:40:21;;;;;;;3.03;1.00;;;;;;;10.02;43.76;101130.75;5033907;28;20093;-86
2022/04/09 11:42:48;;;;;;;2.87;1.13;;;;;;;10.15;42.88;101119.16;5032196;28;20033;-86
2022/04/09 11:45:27;;;;;;;4.20;1.23;;;;;;;9.95;43.98;101113.66;5033447;28;20114;-81
2022/04/09 11:48:32;;;;;;;3.30;1.37;;;;;;;10.12;44.74;101141.22;5033148;28;20036;-84
2022/04/09 11:50:58;;;;;;;3.80;1.40;;;;;;;10.10;42.46;101121.63;5033853;28;20051;-83
2022/04/09 11:53:24;;;;;;;3.70;1.50;;;;;;;10.03;47.58;101143.25;5033140;28;20033;-84
2022/04/09 11:55:58;;;;;;;3.50;1.37;;;;;;;9.27;46.92;101152.13;5033491;28;20039;-83